Time;durP1;ratioP1;P1;durP2;ratioP2;P2;SDS_P1;SDS_P2;PMS_P1;PMS_P2;Temp;Humidity;BMP_temperature;BMP_pressure;BME280_temperature;BME280_humidity;BME280_pressure;Samples;Min_cycle;Max_cycle;Signal;HPM_P1;HPM_P2
2022/05/19 00:01:22;;;;;;;14.00;11.60;;;23.50;83.60;;;;;;5014618;28;20034;-88
2022/05/19 00:03:48;;;;;;;17.45;12.32;;;23.40;83.80;;;;;;4996752;28;20383;-87
2022/05/19 00:06:17;;;;;;;17.33;12.30;;;23.40;84.40;;;;;;5013226;28;20018;-88
2022/05/19 00:08:43;;;;;;;15.10;11.73;;;23.40;84.00;;;;;;5012883;28;20034;-88
2022/05/19 00:11:16;;;;;;;15.82;11.85;;;23.30;84.30;;;;;;5013186;28;20033;-87
2022/05/19 00:13:52;;;;;;;16.70;11.77;;;23.30;84.50;;;;;;5013356;28;20025;-88
2022/05/19 00:16:18;;;;;;;15.00;11.80;;;23.30;84.80;;;;;;5013090;28;20479;-88
2022/05/19 00:18:44;;;;;;;16.88;12.02;;;23.20;84.90;;;;;;4996334;28;20080;-87
2022/05/19 00:21:09;;;;;;;14.50;11.82;;;23.20;85.20;;;;;;5012690;28;20026;-87
2022/05/19 00:23:35;;;;;;;16.85;12.85;;;23.20;85.50;;;;;;4996386;28;20037;-88
2022/05/19 00:26:04;;;;;;;19.25;12.77;;;23.20;85.70;;;;;;5012792;28;20025;-88
2022/05/19 00:28:32;;;;;;;14.85;11.77;;;23.10;85.80;;;;;;5012681;28;20480;-88
2022/05/19 00:31:01;;;;;;;17.05;12.60;;;23.10;85.80;;;;;;5013009;28;20088;-87
2022/05/19 00:33:30;;;;;;;15.57;12.10;;;23.10;86.00;;;;;;5015087;28;20072;-87
2022/05/19 00:35:56;;;;;;;15.05;11.57;;;23.00;86.10;;;;;;4996616;28;20033;-88
2022/05/19 00:38:22;;;;;;;19.83;12.18;;;23.00;86.30;;;;;;4996047;28;20033;-88
2022/05/19 00:40:50;;;;;;;16.60;12.13;;;23.00;86.40;;;;;;4996399;28;20022;-88
2022/05/19 00:43:35;;;;;;;18.20;12.77;;;23.00;86.50;;;;;;5012433;28;20076;-88
2022/05/19 00:46:06;;;;;;;17.25;12.60;;;22.90;86.60;;;;;;5012455;28;20087;-88
2022/05/19 00:48:59;;;;;;;14.63;12.40;;;22.90;86.80;;;;;;5012678;28;20064;-88
2022/05/19 00:51:42;;;;;;;16.40;12.63;;;22.90;87.00;;;;;;5006165;28;20103;-88
2022/05/19 00:54:11;;;;;;;18.10;13.13;;;22.80;87.20;;;;;;5014136;28;20029;-88
2022/05/19 00:56:59;;;;;;;14.75;12.30;;;22.80;87.30;;;;;;5011863;28;20029;-87
2022/05/19 00:59:39;;;;;;;16.83;12.45;;;22.80;87.40;;;;;;5012509;28;20044;-88
2022/05/19 01:02:09;;;;;;;16.92;13.60;;;22.80;87.70;;;;;;5012540;28;20120;-88
2022/05/19 01:04:53;;;;;;;17.15;13.52;;;22.70;87.70;;;;;;5010933;28;20029;-88
2022/05/19 01:07:52;;;;;;;16.75;13.30;;;22.70;87.90;;;;;;5010689;28;20022;-88
2022/05/19 01:10:21;;;;;;;17.20;13.15;;;22.70;88.10;;;;;;5010447;28;20346;-87
2022/05/19 01:12:50;;;;;;;16.27;12.60;;;22.60;88.20;;;;;;4998736;28;20052;-87
2022/05/19 01:15:16;;;;;;;17.40;13.63;;;22.60;88.50;;;;;;5014358;28;20018;-88
2022/05/19 01:17:43;;;;;;;16.48;13.50;;;22.60;88.70;;;;;;5014664;28;20076;-88
2022/05/19 01:20:23;;;;;;;17.20;12.70;;;22.60;88.90;;;;;;5016119;28;20026;-87
2022/05/19 01:23:07;;;;;;;18.77;13.20;;;22.60;89.20;;;;;;5014983;28;20387;-88
2022/05/19 01:26:03;;;;;;;21.02;13.93;;;22.50;89.20;;;;;;4997593;28;20065;-88
2022/05/19 01:28:29;;;;;;;15.98;13.85;;;22.50;89.40;;;;;;4996545;28;20026;-87
2022/05/19 01:30:57;;;;;;;16.48;13.40;;;22.50;89.60;;;;;;4996799;28;20035;-88
2022/05/19 01:33:25;;;;;;;16.98;13.02;;;22.50;89.70;;;;;;4978460;28;20054;-88
2022/05/19 01:35:50;;;;;;;25.30;14.05;;;22.40;89.80;;;;;;4978063;28;20125;-87
2022/05/19 01:38:23;;;;;;;19.40;14.27;;;22.40;90.00;;;;;;4993466;28;20114;-88
2022/05/19 01:41:10;;;;;;;17.95;14.02;;;22.40;90.30;;;;;;4978339;28;20031;-88
2022/05/19 01:43:49;;;;;;;19.85;14.27;;;22.40;90.10;;;;;;4993091;28;20540;-88
2022/05/19 01:46:24;;;;;;;17.75;14.27;;;22.40;90.40;;;;;;4993264;28;20073;-88
2022/05/19 01:49:15;;;;;;;21.08;14.68;;;22.30;90.20;;;;;;4977855;28;20503;-88
2022/05/19 01:52:05;;;;;;;18.48;13.57;;;22.30;90.20;;;;;;4978011;28;20428;-88
2022/05/19 01:55:08;;;;;;;19.17;14.30;;;22.30;90.30;;;;;;4976729;28;20023;-87
2022/05/19 01:57:52;;;;;;;19.65;15.57;;;22.20;90.40;;;;;;4993109;28;20085;-89
2022/05/19 02:00:21;;;;;;;19.77;15.50;;;22.20;90.50;;;;;;4993941;28;20392;-88
2022/05/19 02:03:10;;;;;;;20.60;15.07;;;22.20;90.60;;;;;;4993373;28;20023;-88
2022/05/19 02:06:01;;;;;;;20.48;14.65;;;22.10;90.60;;;;;;4976318;28;20038;-89
2022/05/19 02:08:32;;;;;;;19.25;15.30;;;22.10;90.70;;;;;;4993622;28;20034;-89
2022/05/19 02:11:01;;;;;;;19.38;15.98;;;22.10;90.80;;;;;;4993538;28;20053;-89
2022/05/19 02:13:30;;;;;;;20.20;15.32;;;22.00;90.90;;;;;;4993671;28;20074;-89
2022/05/19 02:16:00;;;;;;;20.63;16.13;;;22.10;91.00;;;;;;4993656;28;20034;-88
2022/05/19 02:18:27;;;;;;;19.63;15.38;;;22.00;91.10;;;;;;4993681;28;20496;-89
2022/05/19 02:20:57;;;;;;;22.08;16.10;;;22.00;91.10;;;;;;4992631;28;20019;-89
2022/05/19 02:23:24;;;;;;;19.50;15.50;;;22.00;91.20;;;;;;4993695;28;20081;-89
2022/05/19 02:25:52;;;;;;;22.42;15.55;;;22.00;91.30;;;;;;4993096;28;20027;-89
2022/05/19 02:28:33;;;;;;;19.27;15.98;;;22.00;91.40;;;;;;4976689;28;20027;-89
2022/05/19 02:31:05;;;;;;;;;;;21.90;91.40;;;;;;4976921;28;20033;-88
2022/05/19 02:33:31;;;;;;;19.27;15.10;;;21.90;91.50;;;;;;4976213;28;19906;-89
2022/05/19 02:35:57;;;;;;;25.55;15.52;;;21.90;91.50;;;;;;4960107;28;20035;-89
2022/05/19 02:38:22;;;;;;;18.83;14.93;;;21.80;91.60;;;;;;4976320;28;20034;-89
2022/05/19 02:40:49;;;;;;;20.42;15.88;;;21.80;91.80;;;;;;4976321;28;20480;-88
2022/05/19 02:43:16;;;;;;;18.60;14.57;;;21.80;91.90;;;;;;4993609;28;20027;-88
2022/05/19 02:45:43;;;;;;;20.77;16.10;;;21.80;92.00;;;;;;4992597;28;20065;-89
2022/05/19 02:48:10;;;;;;;18.67;16.67;;;21.80;92.10;;;;;;4976198;28;20473;-89
2022/05/19 02:50:36;;;;;;;19.20;16.50;;;21.80;92.10;;;;;;4959896;28;20062;-89
2022/05/19 02:56:24;;;;;;;17.95;14.70;;;21.70;92.30;;;;;;4975558;28;20123;-88
2022/05/19 02:58:50;;;;;;;18.30;15.55;;;21.70;92.40;;;;;;4957969;28;20098;-88
2022/05/19 03:01:15;;;;;;;18.77;15.52;;;21.70;92.50;;;;;;4958766;28;20022;-89
2022/05/19 03:03:41;;;;;;;20.38;16.45;;;21.70;92.60;;;;;;4943967;28;20065;-89
2022/05/19 03:06:07;;;;;;;21.17;16.45;;;21.70;92.70;;;;;;4943599;28;20023;-89
2022/05/19 03:08:32;;;;;;;19.98;16.85;;;21.60;92.70;;;;;;4958579;28;20019;-89
2022/05/19 03:10:59;;;;;;;20.45;16.10;;;21.60;92.80;;;;;;4943196;28;20026;-88
2022/05/19 03:13:25;;;;;;;17.90;15.65;;;21.60;92.90;;;;;;4943353;28;20118;-89
2022/05/19 03:15:50;;;;;;;20.63;16.10;;;21.60;93.00;;;;;;4975675;28;20608;-88
2022/05/19 03:18:17;;;;;;;20.05;15.82;;;21.60;93.10;;;;;;4943454;28;20035;-89
2022/05/19 03:20:43;;;;;;;20.40;16.40;;;21.60;93.20;;;;;;4943268;28;20114;-89
2022/05/19 03:23:09;;;;;;;22.90;16.77;;;21.60;93.30;;;;;;4943211;28;20388;-88
2022/05/19 03:25:34;;;;;;;18.88;16.65;;;21.50;93.40;;;;;;4975720;28;20027;-89
2022/05/19 03:28:01;;;;;;;19.40;16.77;;;21.50;93.50;;;;;;4959621;28;20066;-89
2022/05/19 03:30:26;;;;;;;19.75;17.13;;;21.50;93.50;;;;;;4958039;28;20030;-88
2022/05/19 03:32:52;;;;;;;19.05;16.75;;;21.50;93.70;;;;;;4957403;28;20030;-89
2022/05/19 03:35:18;;;;;;;20.42;17.27;;;21.50;93.70;;;;;;4957695;28;20059;-89
2022/05/19 03:37:44;;;;;;;18.88;16.58;;;21.50;93.70;;;;;;4957370;28;20031;-89
2022/05/19 03:40:12;;;;;;;19.25;15.88;;;21.40;93.60;;;;;;4957320;28;20069;-89
2022/05/19 03:42:38;;;;;;;20.65;16.13;;;21.40;93.70;;;;;;4975784;28;20136;-89
2022/05/19 03:45:05;;;;;;;17.40;14.55;;;21.30;93.70;;;;;;4974805;28;20468;-89
2022/05/19 03:47:31;;;;;;;19.15;14.18;;;21.30;93.80;;;;;;4974962;28;20065;-89
2022/05/19 03:49:57;;;;;;;16.02;13.52;;;21.20;93.70;;;;;;4974805;28;20042;-90
2022/05/19 03:52:23;;;;;;;15.60;13.10;;;21.20;93.70;;;;;;4975472;28;20146;-88
2022/05/19 03:54:48;;;;;;;16.42;13.35;;;21.20;93.70;;;;;;4959673;28;20081;-89
2022/05/19 03:57:16;;;;;;;18.83;14.02;;;21.20;93.90;;;;;;4943154;28;20117;-88
2022/05/19 03:59:41;;;;;;;15.90;12.68;;;21.20;93.90;;;;;;4960662;28;20408;-89
2022/05/19 04:02:09;;;;;;;16.67;11.93;;;21.20;94.00;;;;;;4946284;28;20015;-89
2022/05/19 04:04:35;;;;;;;14.88;12.32;;;21.20;94.00;;;;;;4996958;22;20071;-87
2022/05/19 04:07:01;;;;;;;15.27;13.25;;;21.20;94.00;;;;;;4985621;28;20022;-87
2022/05/19 04:09:27;;;;;;;17.10;13.02;;;21.20;93.90;;;;;;4987463;28;20109;-86
2022/05/19 04:11:52;;;;;;;15.70;12.93;;;21.20;94.00;;;;;;4986540;28;20026;-86
2022/05/19 04:14:19;;;;;;;14.93;11.68;;;21.20;94.00;;;;;;4982574;28;20517;-85
2022/05/19 04:16:45;;;;;;;13.02;11.68;;;21.20;94.00;;;;;;4980448;28;20447;-86
2022/05/19 04:19:11;;;;;;;18.98;12.25;;;21.20;94.10;;;;;;4980117;28;20112;-86
2022/05/19 04:21:37;;;;;;;17.52;11.75;;;21.20;94.10;;;;;;4980186;28;20475;-85
2022/05/19 04:24:04;;;;;;;17.60;10.43;;;21.30;94.30;;;;;;4996346;28;20490;-85
2022/05/19 04:26:29;;;;;;;13.88;10.82;;;21.30;94.30;;;;;;4990914;28;20034;-85
2022/05/19 04:28:55;;;;;;;13.70;10.75;;;21.30;94.30;;;;;;4983603;28;20351;-85
2022/05/19 04:31:20;;;;;;;17.08;10.48;;;21.30;94.40;;;;;;4999642;28;20056;-86
2022/05/19 04:33:58;;;;;;;14.02;9.63;;;21.30;94.40;;;;;;4983407;28;20033;-85
2022/05/19 04:36:24;;;;;;;11.02;8.75;;;21.30;94.40;;;;;;4999937;28;20133;-85
2022/05/19 04:38:50;;;;;;;11.88;8.73;;;21.30;94.40;;;;;;5015285;28;20036;-85
2022/05/19 04:41:15;;;;;;;12.35;7.90;;;21.30;94.20;;;;;;4999439;28;20025;-85
2022/05/19 04:43:41;;;;;;;11.77;7.57;;;21.30;94.20;;;;;;4999697;28;20371;-85
2022/05/19 04:46:07;;;;;;;8.90;6.50;;;21.30;94.30;;;;;;5002961;28;20076;-85
2022/05/19 04:48:32;;;;;;;10.73;6.40;;;21.30;94.30;;;;;;5036634;28;20033;-85
2022/05/19 04:50:59;;;;;;;9.52;5.82;;;21.30;94.30;;;;;;5013860;28;20029;-85
2022/05/19 04:53:26;;;;;;;8.98;5.95;;;21.30;94.20;;;;;;4998528;28;20035;-86
2022/05/19 04:55:53;;;;;;;9.35;5.45;;;21.30;94.20;;;;;;5015593;28;20026;-85
2022/05/19 04:58:19;;;;;;;7.95;5.80;;;21.40;94.30;;;;;;5002551;28;20030;-86
2022/05/19 05:00:51;;;;;;;8.00;4.80;;;21.40;94.40;;;;;;4999951;28;20032;-84
2022/05/19 05:03:17;;;;;;;8.80;4.18;;;21.30;94.20;;;;;;5013356;28;20013;-85
2022/05/19 05:05:43;;;;;;;8.57;4.07;;;21.30;94.00;;;;;;5013290;28;20038;-86
2022/05/19 05:08:08;;;;;;;6.63;4.10;;;21.40;93.80;;;;;;5016331;28;20433;-86
2022/05/19 05:10:34;;;;;;;6.13;4.25;;;21.30;93.60;;;;;;5001784;28;20021;-86
2022/05/19 05:13:05;;;;;;;9.13;4.65;;;21.30;93.60;;;;;;5018730;28;20017;-86
2022/05/19 05:15:31;;;;;;;;;;;21.30;93.60;;;;;;5016802;28;20053;-86
2022/05/19 05:17:56;;;;;;;7.32;3.95;;;21.30;93.50;;;;;;4998431;28;19972;-86
2022/05/19 05:20:22;;;;;;;5.57;4.20;;;21.30;93.60;;;;;;4979258;28;20031;-86
2022/05/19 05:22:48;;;;;;;6.95;3.60;;;21.30;93.80;;;;;;5026636;28;20033;-86
2022/05/19 05:25:16;;;;;;;7.10;3.58;;;21.30;93.90;;;;;;4995875;28;20026;-85
2022/05/19 05:27:43;;;;;;;7.13;3.55;;;21.30;94.00;;;;;;5011627;28;20422;-86
2022/05/19 05:30:11;;;;;;;5.72;2.72;;;21.30;94.00;;;;;;4999530;28;20108;-86
2022/05/19 05:32:37;;;;;;;3.97;2.53;;;21.30;94.00;;;;;;4996443;28;20422;-86
2022/05/19 05:35:04;;;;;;;3.92;2.45;;;21.40;93.90;;;;;;5015998;28;20022;-87
2022/05/19 05:37:30;;;;;;;4.43;2.35;;;21.40;93.80;;;;;;5015725;28;20430;-87
2022/05/19 05:39:56;;;;;;;4.70;2.50;;;21.30;93.60;;;;;;5010151;28;20022;-86
2022/05/19 05:42:21;;;;;;;4.15;2.25;;;21.40;93.40;;;;;;4999518;28;20081;-87
2022/05/19 05:44:48;;;;;;;3.25;2.15;;;21.40;93.30;;;;;;5009586;28;20064;-88
2022/05/19 05:47:14;;;;;;;2.67;2.00;;;21.40;93.30;;;;;;5015539;28;20060;-87
2022/05/19 05:49:40;;;;;;;6.45;2.25;;;21.40;93.30;;;;;;5009981;28;20022;-85
2022/05/19 05:52:06;;;;;;;3.85;2.00;;;21.40;93.40;;;;;;4996496;28;20033;-86
2022/05/19 05:54:32;;;;;;;3.50;1.95;;;21.40;93.30;;;;;;5000806;28;20064;-85
2022/05/19 06:00:21;;;;;;;3.42;1.80;;;21.40;93.60;;;;;;5024817;28;20040;-85
2022/05/19 06:02:48;;;;;;;2.78;1.63;;;21.40;93.80;;;;;;4982617;28;20072;-85
2022/05/19 06:05:14;;;;;;;3.33;1.77;;;21.40;93.90;;;;;;4999248;28;20045;-85
2022/05/19 06:07:40;;;;;;;2.95;1.80;;;21.40;94.00;;;;;;5020597;28;20080;-85
2022/05/19 06:10:07;;;;;;;2.40;1.83;;;21.40;94.10;;;;;;5001885;28;20379;-86
2022/05/19 06:12:33;;;;;;;2.67;1.67;;;21.40;94.00;;;;;;5036022;28;20030;-87
2022/05/19 06:14:59;;;;;;;3.25;1.73;;;21.40;94.10;;;;;;5018343;28;20526;-86
2022/05/19 06:17:25;;;;;;;3.92;1.92;;;21.40;94.20;;;;;;5018131;28;20409;-86
2022/05/19 06:19:51;;;;;;;2.72;1.70;;;21.40;94.40;;;;;;5038320;28;20033;-86
2022/05/19 06:22:18;;;;;;;3.35;1.90;;;21.40;94.50;;;;;;5003260;28;20022;-86
2022/05/19 06:24:44;;;;;;;2.50;1.77;;;21.40;94.60;;;;;;5031863;28;20113;-86
2022/05/19 06:27:10;;;;;;;4.22;1.80;;;21.40;94.70;;;;;;5010757;28;20417;-85
2022/05/19 06:29:42;;;;;;;2.50;1.77;;;21.40;94.80;;;;;;4998303;28;20478;-85
2022/05/19 06:32:11;;;;;;;2.55;1.60;;;21.40;94.80;;;;;;5000900;28;20029;-86
2022/05/19 06:34:37;;;;;;;2.70;1.80;;;21.40;94.60;;;;;;5001734;28;20068;-86
2022/05/19 06:37:03;;;;;;;4.20;2.10;;;21.50;94.50;;;;;;4998229;28;20426;-86
2022/05/19 06:39:30;;;;;;;2.65;1.92;;;21.40;94.50;;;;;;4994949;28;20053;-86
2022/05/19 06:42:01;;;;;;;4.57;2.47;;;21.50;94.50;;;;;;4996631;28;20108;-85
2022/05/19 06:44:34;;;;;;;4.75;1.90;;;21.50;94.50;;;;;;5001828;28;20021;-85
2022/05/19 06:47:00;;;;;;;4.68;2.65;;;21.50;94.40;;;;;;5008956;28;20060;-85
2022/05/19 06:49:27;;;;;;;3.40;2.50;;;21.50;94.40;;;;;;5031894;28;20096;-85
2022/05/19 06:51:53;;;;;;;3.65;1.92;;;21.50;94.40;;;;;;5010747;28;20530;-85
2022/05/19 06:54:20;;;;;;;2.50;1.88;;;21.50;94.40;;;;;;5026024;28;20387;-85
2022/05/19 06:56:47;;;;;;;3.95;2.05;;;21.60;94.40;;;;;;5010886;28;20424;-85
2022/05/19 06:59:15;;;;;;;3.50;1.95;;;21.50;94.40;;;;;;5017166;28;20099;-85
2022/05/19 07:01:41;;;;;;;4.32;1.98;;;21.60;94.40;;;;;;5001223;28;20036;-86
2022/05/19 07:04:08;;;;;;;2.83;1.90;;;21.60;94.50;;;;;;5034288;28;20024;-86
2022/05/19 07:06:33;;;;;;;3.63;2.20;;;21.60;94.30;;;;;;5031169;28;20119;-86
2022/05/19 07:08:59;;;;;;;5.30;2.20;;;21.60;94.20;;;;;;4991552;28;20559;-85
2022/05/19 07:11:24;;;;;;;2.97;1.92;;;21.60;94.10;;;;;;4981376;28;20044;-85
2022/05/19 07:13:55;;;;;;;2.75;1.83;;;21.60;94.20;;;;;;4980931;28;20036;-85
2022/05/19 07:16:21;;;;;;;;;;;21.60;94.30;;;;;;5015227;28;20037;-86
2022/05/19 07:18:47;;;;;;;3.33;2.00;;;21.70;94.30;;;;;;4980813;28;19914;-85
2022/05/19 07:21:14;;;;;;;3.53;2.00;;;21.70;94.40;;;;;;4980859;28;20030;-85
2022/05/19 07:23:40;;;;;;;6.93;2.30;;;21.70;94.60;;;;;;4999369;28;20076;-85
2022/05/19 07:26:06;;;;;;;3.85;2.00;;;21.70;94.70;;;;;;5008517;28;20017;-85
2022/05/19 07:28:31;;;;;;;4.30;2.15;;;21.80;94.90;;;;;;5031131;28;20348;-85
2022/05/19 07:30:57;;;;;;;3.28;2.10;;;21.80;94.90;;;;;;5000262;28;20037;-85
2022/05/19 07:33:28;;;;;;;4.13;1.98;;;21.80;94.80;;;;;;5016549;28;20045;-85
2022/05/19 07:35:55;;;;;;;5.22;2.50;;;21.90;94.90;;;;;;5000763;28;20029;-85
2022/05/19 07:38:21;;;;;;;5.25;2.50;;;21.90;95.00;;;;;;5034155;28;20428;-86
2022/05/19 07:40:49;;;;;;;4.80;2.17;;;21.90;95.10;;;;;;5015651;28;20017;-85
2022/05/19 07:45:59;;;;;;;4.70;2.30;;;21.90;95.20;;;;;;5034429;28;20053;-85
2022/05/19 07:48:25;;;;;;;5.10;2.40;;;22.00;95.10;;;;;;5016090;28;20475;-85
2022/05/19 07:50:50;;;;;;;4.60;2.15;;;22.00;95.00;;;;;;4999955;28;20065;-85
2022/05/19 07:53:25;;;;;;;4.75;2.20;;;22.00;95.10;;;;;;4999733;28;20025;-85
2022/05/19 07:55:51;;;;;;;3.47;1.95;;;22.00;95.00;;;;;;5016163;28;20029;-86
2022/05/19 07:58:17;;;;;;;3.78;2.40;;;22.00;95.10;;;;;;4999569;28;20029;-85
2022/05/19 08:00:42;;;;;;;3.55;2.63;;;22.10;95.00;;;;;;4999632;28;20344;-86
2022/05/19 08:03:08;;;;;;;4.32;2.70;;;22.10;94.90;;;;;;5015719;28;20021;-85
2022/05/19 08:05:34;;;;;;;3.88;2.55;;;22.00;94.70;;;;;;5015837;28;20521;-85
2022/05/19 08:07:59;;;;;;;6.88;3.33;;;22.10;94.70;;;;;;5015894;28;20032;-85
2022/05/19 08:10:25;;;;;;;5.50;3.10;;;22.10;94.60;;;;;;4999770;28;20064;-86
2022/05/19 08:15:44;;;;;;;6.93;3.13;;;22.10;94.70;;;;;;5018062;28;20124;-84
2022/05/19 08:18:13;;;;;;;4.40;3.08;;;22.20;94.90;;;;;;5012364;28;20467;-85
2022/05/19 08:20:45;;;;;;;5.40;2.75;;;22.20;95.10;;;;;;5015237;28;20030;-85
2022/05/19 08:23:18;;;;;;;5.43;3.70;;;22.20;95.20;;;;;;5015666;28;20028;-86
2022/05/19 08:25:44;;;;;;;7.03;3.00;;;22.30;95.30;;;;;;5015683;28;20028;-85
2022/05/19 08:28:14;;;;;;;5.30;3.60;;;22.30;95.30;;;;;;5015818;28;20028;-85
2022/05/19 08:30:51;;;;;;;7.18;4.03;;;22.40;95.30;;;;;;4999388;28;20033;-85
2022/05/19 08:33:18;;;;;;;7.05;5.10;;;22.40;95.20;;;;;;5015503;28;20085;-83
2022/05/19 08:35:44;;;;;;;8.88;4.85;;;22.40;94.50;;;;;;4998696;28;20026;-84
2022/05/19 08:38:10;;;;;;;7.75;5.03;;;22.50;94.50;;;;;;5014984;28;20027;-86
2022/05/19 08:40:44;;;;;;;9.50;5.57;;;22.60;94.40;;;;;;4999276;28;20121;-86
2022/05/19 08:43:13;;;;;;;7.90;5.43;;;22.60;94.30;;;;;;5014839;28;20080;-86
2022/05/19 08:45:43;;;;;;;8.07;4.63;;;22.70;94.20;;;;;;5004107;28;20030;-91
2022/05/19 08:48:19;;;;;;;7.07;5.05;;;22.70;94.10;;;;;;4995059;28;20022;-91
2022/05/19 08:50:48;;;;;;;6.53;5.22;;;22.80;94.10;;;;;;5008076;28;20124;-90
2022/05/19 08:53:13;;;;;;;6.40;4.88;;;22.90;94.00;;;;;;5022461;28;20014;-91
2022/05/19 08:55:47;;;;;;;7.20;4.90;;;22.90;93.70;;;;;;4999137;28;20029;-83
2022/05/19 08:58:29;;;;;;;7.50;4.82;;;23.00;93.70;;;;;;5002756;28;20022;-83
2022/05/19 09:01:01;;;;;;;7.28;5.05;;;23.00;93.60;;;;;;5016642;28;20048;-83
2022/05/19 09:03:37;;;;;;;7.00;4.53;;;23.10;93.50;;;;;;4998145;28;20083;-83
2022/05/19 09:06:27;;;;;;;6.32;4.55;;;23.20;93.60;;;;;;4993690;28;20046;-84
2022/05/19 09:09:11;;;;;;;5.80;4.50;;;23.20;93.80;;;;;;4989414;28;20030;-84
2022/05/19 09:11:51;;;;;;;7.03;4.47;;;23.30;93.90;;;;;;5001566;28;20109;-83
2022/05/19 09:14:28;;;;;;;6.30;4.35;;;23.40;93.60;;;;;;4996112;28;20022;-84
2022/05/19 09:17:02;;;;;;;5.18;3.90;;;23.50;93.00;;;;;;5001384;28;20036;-82
2022/05/19 09:19:52;;;;;;;8.07;4.50;;;23.50;93.00;;;;;;5002885;28;20049;-82
2022/05/19 09:22:24;;;;;;;6.82;4.60;;;23.50;92.70;;;;;;4983763;28;20061;-83
2022/05/19 09:24:53;;;;;;;7.40;4.55;;;23.60;92.70;;;;;;4988351;28;20109;-83
2022/05/19 09:27:22;;;;;;;5.50;3.92;;;23.60;92.60;;;;;;4987217;28;20411;-81
2022/05/19 09:29:55;;;;;;;7.05;4.53;;;23.70;92.60;;;;;;5003256;28;20041;-81
2022/05/19 09:32:29;;;;;;;7.35;5.13;;;23.80;92.70;;;;;;5004190;28;20029;-82
2022/05/19 09:35:06;;;;;;;8.88;5.97;;;23.80;92.60;;;;;;5011845;28;20014;-83
2022/05/19 09:37:43;;;;;;;9.52;6.15;;;23.90;92.10;;;;;;5017858;28;20036;-83
2022/05/19 09:40:11;;;;;;;6.45;4.82;;;23.90;91.60;;;;;;5018315;28;20025;-83
2022/05/19 09:43:08;;;;;;;6.97;4.10;;;24.00;91.30;;;;;;5018195;28;20029;-83
2022/05/19 09:45:44;;;;;;;6.63;4.18;;;24.10;91.30;;;;;;5018237;28;20108;-83
2022/05/19 09:48:11;;;;;;;5.90;4.20;;;24.10;91.00;;;;;;5018693;28;20021;-84
2022/05/19 09:50:48;;;;;;;7.25;4.20;;;24.20;90.80;;;;;;5002269;28;20025;-84
2022/05/19 09:53:21;;;;;;;5.68;4.07;;;24.20;90.70;;;;;;5018401;28;20025;-84
2022/05/19 09:56:00;;;;;;;6.30;4.45;;;24.30;90.80;;;;;;5018437;28;20026;-86
2022/05/19 09:58:30;;;;;;;6.30;4.30;;;24.30;90.70;;;;;;5036080;28;20029;-86
2022/05/19 10:01:04;;;;;;;8.95;4.05;;;24.30;90.50;;;;;;5018325;28;20018;-84
2022/05/19 10:03:43;;;;;;;7.03;4.40;;;24.30;90.50;;;;;;5018963;28;20029;-84
2022/05/19 10:06:16;;;;;;;7.35;4.03;;;24.40;90.50;;;;;;5017705;28;20065;-84
2022/05/19 10:08:44;;;;;;;10.05;3.72;;;24.40;90.50;;;;;;5018039;28;20112;-84
2022/05/19 10:11:21;;;;;;;6.35;3.90;;;24.40;90.60;;;;;;5018090;28;20541;-84
2022/05/19 10:13:49;;;;;;;7.07;4.05;;;24.50;90.70;;;;;;5018039;28;20033;-84
2022/05/19 10:16:36;;;;;;;5.35;3.80;;;24.50;90.80;;;;;;5017878;28;20463;-83
2022/05/19 10:19:26;;;;;;;4.68;3.42;;;24.50;90.80;;;;;;5035607;28;20060;-83
2022/05/19 10:21:59;;;;;;;8.13;3.90;;;24.50;90.70;;;;;;5017843;28;20409;-82
2022/05/19 10:24:47;;;;;;;6.53;3.58;;;24.50;90.60;;;;;;5017810;28;20021;-84
2022/05/19 10:31:05;;;;;;;6.60;3.58;;;24.60;90.40;;;;;;4982133;28;20382;-82
2022/05/19 10:33:59;;;;;;;5.63;3.45;;;24.70;90.40;;;;;;5012512;28;20467;-82
2022/05/19 10:36:31;;;;;;;5.32;3.80;;;24.70;90.20;;;;;;5027704;28;20025;-84
2022/05/19 10:39:26;;;;;;;6.47;3.33;;;24.80;90.20;;;;;;5035330;28;20030;-84
2022/05/19 10:42:21;;;;;;;6.55;3.40;;;24.80;90.10;;;;;;5016593;28;20120;-84
2022/05/19 10:45:04;;;;;;;5.93;3.38;;;24.90;89.90;;;;;;5035161;28;20017;-85
2022/05/19 10:47:38;;;;;;;6.18;3.30;;;24.90;89.60;;;;;;5017482;28;20037;-84
2022/05/19 10:50:04;;;;;;;6.97;4.05;;;24.90;89.60;;;;;;5017229;28;20025;-84
2022/05/19 10:52:29;;;;;;;5.53;3.60;;;25.00;89.30;;;;;;5017304;28;20033;-83
2022/05/19 10:55:01;;;;;;;3.88;2.97;;;25.00;88.70;;;;;;5035018;28;20478;-82
2022/05/19 10:57:30;;;;;;;5.70;3.28;;;25.10;88.60;;;;;;5013847;28;20083;-82
2022/05/19 11:00:15;;;;;;;6.97;3.15;;;25.10;88.50;;;;;;5012946;28;20026;-82
2022/05/19 11:03:01;;;;;;;5.93;3.10;;;25.10;87.90;;;;;;5033843;28;20022;-84
2022/05/19 11:05:34;;;;;;;5.25;2.92;;;25.20;87.60;;;;;;5030624;28;20041;-83
2022/05/19 11:08:08;;;;;;;5.97;2.95;;;25.20;87.60;;;;;;5016231;28;20060;-82
2022/05/19 11:10:57;;;;;;;4.72;3.00;;;25.30;88.00;;;;;;4996388;28;20021;-83
2022/05/19 11:13:51;;;;;;;5.53;3.05;;;25.30;88.00;;;;;;5028858;28;20036;-85
2022/05/19 11:16:41;;;;;;;5.63;3.08;;;25.30;87.70;;;;;;5016125;28;20030;-85
2022/05/19 11:19:13;;;;;;;7.45;3.28;;;25.40;87.60;;;;;;5033905;28;20045;-84
2022/05/19 11:21:46;;;;;;;5.75;2.78;;;25.40;87.20;;;;;;5008114;28;20021;-83
2022/05/19 11:24:22;;;;;;;5.75;2.47;;;25.50;87.30;;;;;;5011812;28;20076;-83
2022/05/19 11:27:04;;;;;;;6.00;2.92;;;25.50;87.20;;;;;;4996914;28;20022;-83
2022/05/19 11:29:42;;;;;;;5.43;3.10;;;25.60;87.10;;;;;;4997766;28;20026;-86
2022/05/19 11:32:15;;;;;;;4.50;2.58;;;25.60;87.20;;;;;;4997845;28;20029;-86
2022/05/19 11:38:06;;;;;;;10.30;3.15;;;25.60;86.90;;;;;;5013613;28;20048;-86
2022/05/19 11:40:56;;;;;;;4.50;3.15;;;25.70;86.20;;;;;;4996979;28;20414;-85
2022/05/19 11:46:51;;;;;;;5.45;3.10;;;25.70;87.10;;;;;;5029255;28;20040;-85
2022/05/19 11:55:45;;;;;;;6.93;3.30;;;25.70;88.10;;;;;;5034654;28;20103;-87
2022/05/19 11:58:24;;;;;;;7.57;3.80;;;25.70;88.10;;;;;;5001288;28;20381;-87
2022/05/19 12:00:52;;;;;;;8.00;3.92;;;25.60;88.30;;;;;;5016901;28;20312;-86
2022/05/19 12:03:24;;;;;;;6.15;3.30;;;25.60;89.60;;;;;;5017113;28;20025;-87
2022/05/19 12:06:00;;;;;;;5.85;3.90;;;25.70;90.30;;;;;;5013469;28;20475;-87
2022/05/19 12:08:50;;;;;;;7.95;3.95;;;25.60;90.70;;;;;;5013435;28;20036;-87
2022/05/19 12:11:22;;;;;;;6.90;4.13;;;25.60;90.90;;;;;;5014268;28;20046;-87
2022/05/19 12:14:05;;;;;;;8.40;4.53;;;25.60;91.10;;;;;;5014396;28;20156;-87
2022/05/19 12:16:45;;;;;;;10.70;2.63;;;25.60;91.50;;;;;;5004342;28;20023;-86
2022/05/19 12:19:28;;;;;;;13.90;2.08;;;25.60;85.30;;;;;;5012690;28;20022;-85
2022/05/19 12:21:55;;;;;;;15.48;3.47;;;25.10;83.80;;;;;;5007039;28;20036;-92
2022/05/19 12:24:50;;;;;;;16.13;4.00;;;24.50;88.90;;;;;;5000697;28;20030;-88
2022/05/19 12:27:23;;;;;;;13.75;2.50;;;24.10;91.30;;;;;;5012005;28;20026;-88
2022/05/19 12:29:57;;;;;;;6.07;2.38;;;23.70;92.90;;;;;;5008586;28;20026;-91
2022/05/19 12:32:29;;;;;;;5.82;1.60;;;23.40;93.90;;;;;;4993033;28;20104;-91
2022/05/19 12:35:07;;;;;;;5.05;1.52;;;23.10;95.10;;;;;;5007431;28;20678;-89
2022/05/19 12:37:42;;;;;;;6.57;1.48;;;22.90;96.70;;;;;;5007066;28;20053;-89
2022/05/19 12:40:30;;;;;;;6.88;1.20;;;22.70;98.00;;;;;;5002621;28;20479;-89
2022/05/19 12:43:49;;;;;;;3.83;1.45;;;22.50;98.60;;;;;;4998054;28;20031;-89
2022/05/19 12:46:33;;;;;;;3.90;1.35;;;22.30;99.40;;;;;;4997029;28;20088;-89
2022/05/19 12:49:19;;;;;;;5.15;1.75;;;22.20;99.90;;;;;;5012780;28;20038;-87
2022/05/19 12:51:53;;;;;;;5.45;1.67;;;22.10;99.90;;;;;;5014240;28;20034;-87
2022/05/19 12:54:20;;;;;;;8.23;1.52;;;22.00;99.90;;;;;;5012616;28;20113;-87
2022/05/19 12:56:59;;;;;;;5.00;1.80;;;21.90;99.90;;;;;;4996338;28;20088;-87
2022/05/19 12:59:37;;;;;;;4.95;1.90;;;21.90;99.90;;;;;;5013730;28;20506;-88
2022/05/19 13:02:39;;;;;;;5.25;2.00;;;21.80;99.90;;;;;;5013739;28;20026;-88
2022/05/19 13:05:16;;;;;;;4.75;2.08;;;21.90;99.90;;;;;;5002218;28;20053;-88
2022/05/19 13:07:50;;;;;;;5.43;2.20;;;21.80;99.90;;;;;;5006490;28;20014;-89
2022/05/19 13:10:26;;;;;;;5.32;2.10;;;21.80;99.90;;;;;;5006362;28;20034;-88
2022/05/19 13:13:02;;;;;;;6.47;2.53;;;21.80;99.90;;;;;;5011295;28;20491;-87
2022/05/19 13:15:31;;;;;;;5.15;2.30;;;21.80;99.90;;;;;;4998449;28;20026;-88
2022/05/19 13:18:03;;;;;;;6.85;2.13;;;21.80;99.90;;;;;;4996522;28;20113;-87
2022/05/19 13:20:35;;;;;;;5.85;2.47;;;21.90;99.90;;;;;;5000726;28;20364;-87
2022/05/19 13:23:07;;;;;;;9.52;2.40;;;21.90;99.90;;;;;;5005186;28;20018;-88
2022/05/19 13:25:42;;;;;;;5.72;2.50;;;21.80;99.90;;;;;;5008312;28;20112;-88
2022/05/19 13:31:00;;;;;;;4.72;2.10;;;21.90;99.90;;;;;;5010233;28;20041;-88
2022/05/19 13:33:35;;;;;;;5.97;2.33;;;21.80;99.90;;;;;;5006835;28;20033;-89
2022/05/19 13:36:06;;;;;;;5.78;2.25;;;21.80;99.90;;;;;;5003720;28;20022;-89